sensor_id;sensor_type;location;lat;lon;timestamp;temperature;humidity
13898;DHT22;7019;50.766;4.474;2022-08-21T00:01:31;14.50;99.90
13898;DHT22;7019;50.766;4.474;2022-08-21T00:03:58;14.50;99.90
13898;DHT22;7019;50.766;4.474;2022-08-21T00:06:30;14.40;99.90
13898;DHT22;7019;50.766;4.474;2022-08-21T00:09:00;14.40;99.90
13898;DHT22;7019;50.766;4.474;2022-08-21T00:11:27;14.40;99.90
13898;DHT22;7019;50.766;4.474;2022-08-21T00:13:54;14.40;99.90
13898;DHT22;7019;50.766;4.474;2022-08-21T00:16:22;14.40;99.90
13898;DHT22;7019;50.766;4.474;2022-08-21T00:18:49;14.40;99.90
13898;DHT22;7019;50.766;4.474;2022-08-21T00:21:16;14.40;99.90
13898;DHT22;7019;50.766;4.474;2022-08-21T00:23:44;14.40;99.90
13898;DHT22;7019;50.766;4.474;2022-08-21T00:26:12;14.30;99.90
13898;DHT22;7019;50.766;4.474;2022-08-21T00:28:40;14.30;99.90
13898;DHT22;7019;50.766;4.474;2022-08-21T00:31:07;14.30;99.90
13898;DHT22;7019;50.766;4.474;2022-08-21T00:33:34;14.30;99.90
13898;DHT22;7019;50.766;4.474;2022-08-21T00:36:02;14.30;99.90
13898;DHT22;7019;50.766;4.474;2022-08-21T00:38:30;14.30;99.90
13898;DHT22;7019;50.766;4.474;2022-08-21T00:41:00;14.30;99.90
13898;DHT22;7019;50.766;4.474;2022-08-21T00:43:32;14.10;99.90
13898;DHT22;7019;50.766;4.474;2022-08-21T00:46:00;13.80;99.90
13898;DHT22;7019;50.766;4.474;2022-08-21T00:48:27;13.60;99.90
13898;DHT22;7019;50.766;4.474;2022-08-21T00:50:57;13.50;99.90
13898;DHT22;7019;50.766;4.474;2022-08-21T00:53:25;13.40;99.90
13898;DHT22;7019;50.766;4.474;2022-08-21T00:55:55;13.40;99.90
13898;DHT22;7019;50.766;4.474;2022-08-21T00:58:23;13.40;99.90
13898;DHT22;7019;50.766;4.474;2022-08-21T01:00:52;13.40;99.90
13898;DHT22;7019;50.766;4.474;2022-08-21T01:03:23;13.40;99.90
13898;DHT22;7019;50.766;4.474;2022-08-21T01:05:51;13.30;99.90
13898;DHT22;7019;50.766;4.474;2022-08-21T01:08:20;13.30;99.90
13898;DHT22;7019;50.766;4.474;2022-08-21T01:10:48;13.30;99.90
13898;DHT22;7019;50.766;4.474;2022-08-21T01:13:17;13.30;99.90
13898;DHT22;7019;50.766;4.474;2022-08-21T01:15:47;13.20;99.90
13898;DHT22;7019;50.766;4.474;2022-08-21T01:18:17;13.20;99.90
13898;DHT22;7019;50.766;4.474;2022-08-21T01:20:56;13.20;99.90
13898;DHT22;7019;50.766;4.474;2022-08-21T01:23:24;13.30;99.90
13898;DHT22;7019;50.766;4.474;2022-08-21T01:25:51;13.40;99.90
13898;DHT22;7019;50.766;4.474;2022-08-21T01:28:19;13.50;99.90
13898;DHT22;7019;50.766;4.474;2022-08-21T01:30:49;13.60;99.90
13898;DHT22;7019;50.766;4.474;2022-08-21T01:33:18;13.60;99.90
13898;DHT22;7019;50.766;4.474;2022-08-21T01:35:46;13.60;99.90
13898;DHT22;7019;50.766;4.474;2022-08-21T01:38:15;13.60;99.90
13898;DHT22;7019;50.766;4.474;2022-08-21T01:40:43;13.60;99.90
13898;DHT22;7019;50.766;4.474;2022-08-21T01:43:10;13.60;99.90
13898;DHT22;7019;50.766;4.474;2022-08-21T01:45:37;13.60;99.90
13898;DHT22;7019;50.766;4.474;2022-08-21T01:48:05;13.60;99.90
13898;DHT22;7019;50.766;4.474;2022-08-21T01:50:32;13.60;99.90
13898;DHT22;7019;50.766;4.474;2022-08-21T01:52:59;13.50;99.90
13898;DHT22;7019;50.766;4.474;2022-08-21T01:55:27;13.40;99.90
13898;DHT22;7019;50.766;4.474;2022-08-21T01:57:55;13.40;99.90
13898;DHT22;7019;50.766;4.474;2022-08-21T02:00:22;13.40;99.90
13898;DHT22;7019;50.766;4.474;2022-08-21T02:02:50;13.40;99.90
13898;DHT22;7019;50.766;4.474;2022-08-21T02:05:18;13.30;99.90
13898;DHT22;7019;50.766;4.474;2022-08-21T02:07:47;13.40;99.90
13898;DHT22;7019;50.766;4.474;2022-08-21T02:10:25;13.40;99.90
13898;DHT22;7019;50.766;4.474;2022-08-21T02:12:54;13.30;99.90
13898;DHT22;7019;50.766;4.474;2022-08-21T02:15:22;13.40;99.90
13898;DHT22;7019;50.766;4.474;2022-08-21T02:17:51;13.40;99.90
13898;DHT22;7019;50.766;4.474;2022-08-21T02:20:21;13.30;99.90
13898;DHT22;7019;50.766;4.474;2022-08-21T02:22:49;13.30;99.90
13898;DHT22;7019;50.766;4.474;2022-08-21T02:25:17;13.30;99.90
13898;DHT22;7019;50.766;4.474;2022-08-21T02:27:45;13.30;99.90
13898;DHT22;7019;50.766;4.474;2022-08-21T02:30:17;13.30;99.90
13898;DHT22;7019;50.766;4.474;2022-08-21T02:32:44;13.30;99.90
13898;DHT22;7019;50.766;4.474;2022-08-21T02:35:12;13.30;99.90
13898;DHT22;7019;50.766;4.474;2022-08-21T02:37:47;13.30;99.90
13898;DHT22;7019;50.766;4.474;2022-08-21T02:40:17;13.30;99.90
13898;DHT22;7019;50.766;4.474;2022-08-21T02:42:44;13.30;99.90
13898;DHT22;7019;50.766;4.474;2022-08-21T02:45:12;13.20;99.90
13898;DHT22;7019;50.766;4.474;2022-08-21T02:47:47;13.20;99.90
13898;DHT22;7019;50.766;4.474;2022-08-21T02:50:19;13.20;99.90
13898;DHT22;7019;50.766;4.474;2022-08-21T02:52:47;13.20;99.90
13898;DHT22;7019;50.766;4.474;2022-08-21T02:55:14;13.20;99.90
13898;DHT22;7019;50.766;4.474;2022-08-21T02:57:42;13.10;99.90
13898;DHT22;7019;50.766;4.474;2022-08-21T03:00:10;13.00;99.90
13898;DHT22;7019;50.766;4.474;2022-08-21T03:02:40;13.00;99.90
13898;DHT22;7019;50.766;4.474;2022-08-21T03:05:09;13.00;99.90
13898;DHT22;7019;50.766;4.474;2022-08-21T03:07:37;13.00;99.90
13898;DHT22;7019;50.766;4.474;2022-08-21T03:10:06;13.00;99.90
13898;DHT22;7019;50.766;4.474;2022-08-21T03:12:34;13.00;99.90
13898;DHT22;7019;50.766;4.474;2022-08-21T03:15:01;13.00;99.90
13898;DHT22;7019;50.766;4.474;2022-08-21T03:17:29;13.00;99.90
13898;DHT22;7019;50.766;4.474;2022-08-21T03:19:58;13.10;99.90
13898;DHT22;7019;50.766;4.474;2022-08-21T03:22:26;13.00;99.90
13898;DHT22;7019;50.766;4.474;2022-08-21T03:24:53;13.00;99.90
13898;DHT22;7019;50.766;4.474;2022-08-21T03:27:21;13.00;99.90
13898;DHT22;7019;50.766;4.474;2022-08-21T03:29:48;13.00;99.90
13898;DHT22;7019;50.766;4.474;2022-08-21T03:32:15;13.00;99.90
13898;DHT22;7019;50.766;4.474;2022-08-21T03:34:42;13.00;99.90
13898;DHT22;7019;50.766;4.474;2022-08-21T03:37:10;13.00;99.90
13898;DHT22;7019;50.766;4.474;2022-08-21T03:39:38;12.90;99.90
13898;DHT22;7019;50.766;4.474;2022-08-21T03:42:05;12.90;99.90
13898;DHT22;7019;50.766;4.474;2022-08-21T03:44:33;12.90;99.90
13898;DHT22;7019;50.766;4.474;2022-08-21T03:47:00;12.90;99.90
13898;DHT22;7019;50.766;4.474;2022-08-21T03:49:27;12.90;99.90
13898;DHT22;7019;50.766;4.474;2022-08-21T03:51:55;12.80;99.90
13898;DHT22;7019;50.766;4.474;2022-08-21T03:54:23;12.80;99.90
13898;DHT22;7019;50.766;4.474;2022-08-21T03:56:50;12.80;99.90
13898;DHT22;7019;50.766;4.474;2022-08-21T03:59:17;12.80;99.90
13898;DHT22;7019;50.766;4.474;2022-08-21T04:01:51;12.80;99.90
13898;DHT22;7019;50.766;4.474;2022-08-21T04:04:18;12.80;99.90
13898;DHT22;7019;50.766;4.474;2022-08-21T04:06:46;12.70;99.90
13898;DHT22;7019;50.766;4.474;2022-08-21T04:09:13;12.80;99.90
13898;DHT22;7019;50.766;4.474;2022-08-21T04:11:41;12.80;99.90
13898;DHT22;7019;50.766;4.474;2022-08-21T04:14:08;12.70;99.90
13898;DHT22;7019;50.766;4.474;2022-08-21T04:16:35;12.40;99.90
13898;DHT22;7019;50.766;4.474;2022-08-21T04:19:02;12.20;99.90
13898;DHT22;7019;50.766;4.474;2022-08-21T04:21:30;12.10;99.90
13898;DHT22;7019;50.766;4.474;2022-08-21T04:23:58;12.00;99.90
13898;DHT22;7019;50.766;4.474;2022-08-21T04:26:25;12.00;99.90
13898;DHT22;7019;50.766;4.474;2022-08-21T04:28:53;12.10;99.90
13898;DHT22;7019;50.766;4.474;2022-08-21T04:31:21;12.20;99.90
13898;DHT22;7019;50.766;4.474;2022-08-21T04:33:48;12.30;99.90
13898;DHT22;7019;50.766;4.474;2022-08-21T04:36:16;12.40;99.90
13898;DHT22;7019;50.766;4.474;2022-08-21T04:38:43;12.40;99.90
13898;DHT22;7019;50.766;4.474;2022-08-21T04:41:10;12.50;99.90
13898;DHT22;7019;50.766;4.474;2022-08-21T04:43:38;12.50;99.90
13898;DHT22;7019;50.766;4.474;2022-08-21T04:46:07;12.50;99.90
13898;DHT22;7019;50.766;4.474;2022-08-21T04:48:34;12.50;99.90
13898;DHT22;7019;50.766;4.474;2022-08-21T04:51:05;12.50;99.90
13898;DHT22;7019;50.766;4.474;2022-08-21T04:53:38;12.60;99.90
13898;DHT22;7019;50.766;4.474;2022-08-21T04:56:09;12.50;99.90
13898;DHT22;7019;50.766;4.474;2022-08-21T04:58:39;12.40;99.90
13898;DHT22;7019;50.766;4.474;2022-08-21T05:01:13;12.40;99.90
13898;DHT22;7019;50.766;4.474;2022-08-21T05:03:42;12.40;99.90
13898;DHT22;7019;50.766;4.474;2022-08-21T05:06:13;12.40;99.90
13898;DHT22;7019;50.766;4.474;2022-08-21T05:08:41;12.50;99.90
13898;DHT22;7019;50.766;4.474;2022-08-21T05:11:09;12.50;99.90
13898;DHT22;7019;50.766;4.474;2022-08-21T05:13:36;12.50;99.90
13898;DHT22;7019;50.766;4.474;2022-08-21T05:16:04;12.60;99.90
13898;DHT22;7019;50.766;4.474;2022-08-21T05:18:33;12.60;99.90
13898;DHT22;7019;50.766;4.474;2022-08-21T05:21:00;12.60;99.90
13898;DHT22;7019;50.766;4.474;2022-08-21T05:23:27;12.70;99.90
13898;DHT22;7019;50.766;4.474;2022-08-21T05:25:54;12.70;99.90
13898;DHT22;7019;50.766;4.474;2022-08-21T05:28:22;12.70;99.90
13898;DHT22;7019;50.766;4.474;2022-08-21T05:30:49;12.60;99.90
13898;DHT22;7019;50.766;4.474;2022-08-21T05:33:16;12.70;99.90
13898;DHT22;7019;50.766;4.474;2022-08-21T05:35:44;12.80;99.90
13898;DHT22;7019;50.766;4.474;2022-08-21T05:38:12;12.80;99.90
13898;DHT22;7019;50.766;4.474;2022-08-21T05:40:39;12.80;99.90
13898;DHT22;7019;50.766;4.474;2022-08-21T05:43:06;12.80;99.90
13898;DHT22;7019;50.766;4.474;2022-08-21T05:45:33;12.70;99.90
13898;DHT22;7019;50.766;4.474;2022-08-21T05:48:06;12.60;99.90
13898;DHT22;7019;50.766;4.474;2022-08-21T05:50:34;12.50;99.90
13898;DHT22;7019;50.766;4.474;2022-08-21T05:53:04;12.40;99.90
13898;DHT22;7019;50.766;4.474;2022-08-21T05:55:31;12.40;99.90
13898;DHT22;7019;50.766;4.474;2022-08-21T05:57:59;12.60;99.90
13898;DHT22;7019;50.766;4.474;2022-08-21T06:00:26;12.80;99.90
13898;DHT22;7019;50.766;4.474;2022-08-21T06:02:53;12.90;99.90
13898;DHT22;7019;50.766;4.474;2022-08-21T06:05:21;13.10;99.90
13898;DHT22;7019;50.766;4.474;2022-08-21T06:07:48;13.20;99.90
13898;DHT22;7019;50.766;4.474;2022-08-21T06:10:16;13.30;99.90
13898;DHT22;7019;50.766;4.474;2022-08-21T06:12:44;13.40;99.90
13898;DHT22;7019;50.766;4.474;2022-08-21T06:15:11;13.40;99.90
13898;DHT22;7019;50.766;4.474;2022-08-21T06:17:38;13.50;99.90
13898;DHT22;7019;50.766;4.474;2022-08-21T06:20:06;13.60;99.90
13898;DHT22;7019;50.766;4.474;2022-08-21T06:22:33;14.00;99.90
13898;DHT22;7019;50.766;4.474;2022-08-21T06:25:00;14.50;99.90
13898;DHT22;7019;50.766;4.474;2022-08-21T06:27:29;15.20;99.90
13898;DHT22;7019;50.766;4.474;2022-08-21T06:29:56;16.00;99.90
13898;DHT22;7019;50.766;4.474;2022-08-21T06:32:24;16.50;99.90
13898;DHT22;7019;50.766;4.474;2022-08-21T06:34:51;16.70;99.90
13898;DHT22;7019;50.766;4.474;2022-08-21T06:37:18;16.80;99.90
13898;DHT22;7019;50.766;4.474;2022-08-21T06:39:45;16.60;99.90
13898;DHT22;7019;50.766;4.474;2022-08-21T06:42:14;16.50;99.90
13898;DHT22;7019;50.766;4.474;2022-08-21T06:44:43;16.40;99.90
13898;DHT22;7019;50.766;4.474;2022-08-21T06:47:10;16.20;99.90
13898;DHT22;7019;50.766;4.474;2022-08-21T06:49:37;16.10;99.90
13898;DHT22;7019;50.766;4.474;2022-08-21T06:52:08;16.00;99.90
13898;DHT22;7019;50.766;4.474;2022-08-21T06:54:35;16.00;99.90
13898;DHT22;7019;50.766;4.474;2022-08-21T06:57:03;16.00;99.90
13898;DHT22;7019;50.766;4.474;2022-08-21T06:59:30;16.10;99.90
13898;DHT22;7019;50.766;4.474;2022-08-21T07:01:59;16.20;99.90
13898;DHT22;7019;50.766;4.474;2022-08-21T07:04:27;16.20;99.90
13898;DHT22;7019;50.766;4.474;2022-08-21T07:06:54;16.20;99.90
13898;DHT22;7019;50.766;4.474;2022-08-21T07:09:21;16.30;99.90
13898;DHT22;7019;50.766;4.474;2022-08-21T07:11:51;16.40;99.90
13898;DHT22;7019;50.766;4.474;2022-08-21T07:14:19;16.60;99.90
13898;DHT22;7019;50.766;4.474;2022-08-21T07:16:46;16.80;99.90
13898;DHT22;7019;50.766;4.474;2022-08-21T07:19:15;17.10;99.90
13898;DHT22;7019;50.766;4.474;2022-08-21T07:21:42;17.40;99.90
13898;DHT22;7019;50.766;4.474;2022-08-21T07:24:09;17.60;99.90
13898;DHT22;7019;50.766;4.474;2022-08-21T07:26:37;18.00;99.90
13898;DHT22;7019;50.766;4.474;2022-08-21T07:29:04;18.40;99.90
13898;DHT22;7019;50.766;4.474;2022-08-21T07:31:31;19.00;99.90
13898;DHT22;7019;50.766;4.474;2022-08-21T07:33:58;19.50;99.90
13898;DHT22;7019;50.766;4.474;2022-08-21T07:36:27;20.10;99.90
13898;DHT22;7019;50.766;4.474;2022-08-21T07:38:54;20.80;99.90
13898;DHT22;7019;50.766;4.474;2022-08-21T07:41:22;21.30;99.90
13898;DHT22;7019;50.766;4.474;2022-08-21T07:43:49;21.80;99.90
13898;DHT22;7019;50.766;4.474;2022-08-21T07:46:16;22.10;99.90
13898;DHT22;7019;50.766;4.474;2022-08-21T07:48:43;22.50;99.90
13898;DHT22;7019;50.766;4.474;2022-08-21T07:51:13;23.10;99.90
13898;DHT22;7019;50.766;4.474;2022-08-21T07:53:47;23.70;99.90
13898;DHT22;7019;50.766;4.474;2022-08-21T07:56:14;24.00;99.90
13898;DHT22;7019;50.766;4.474;2022-08-21T07:58:41;24.60;99.90
13898;DHT22;7019;50.766;4.474;2022-08-21T08:01:08;25.00;99.90
13898;DHT22;7019;50.766;4.474;2022-08-21T08:03:35;25.20;99.90
13898;DHT22;7019;50.766;4.474;2022-08-21T08:06:04;25.30;99.90
13898;DHT22;7019;50.766;4.474;2022-08-21T08:08:31;25.00;99.90
13898;DHT22;7019;50.766;4.474;2022-08-21T08:11:00;25.10;99.90
13898;DHT22;7019;50.766;4.474;2022-08-21T08:13:27;25.00;99.90
13898;DHT22;7019;50.766;4.474;2022-08-21T08:15:54;24.60;99.90
13898;DHT22;7019;50.766;4.474;2022-08-21T08:18:22;24.30;99.90
13898;DHT22;7019;50.766;4.474;2022-08-21T08:20:49;24.00;99.90
13898;DHT22;7019;50.766;4.474;2022-08-21T08:23:16;24.10;99.90
13898;DHT22;7019;50.766;4.474;2022-08-21T08:25:43;23.90;99.90
13898;DHT22;7019;50.766;4.474;2022-08-21T08:28:11;23.80;99.90
13898;DHT22;7019;50.766;4.474;2022-08-21T08:30:38;23.80;99.90
13898;DHT22;7019;50.766;4.474;2022-08-21T08:33:05;23.60;99.90
13898;DHT22;7019;50.766;4.474;2022-08-21T08:35:32;23.70;99.90
13898;DHT22;7019;50.766;4.474;2022-08-21T08:37:59;23.90;99.90
13898;DHT22;7019;50.766;4.474;2022-08-21T08:40:31;24.20;99.90
13898;DHT22;7019;50.766;4.474;2022-08-21T08:43:01;24.40;99.90
13898;DHT22;7019;50.766;4.474;2022-08-21T08:45:30;24.90;99.90
13898;DHT22;7019;50.766;4.474;2022-08-21T08:48:02;25.20;99.90
13898;DHT22;7019;50.766;4.474;2022-08-21T08:50:39;25.40;99.90
13898;DHT22;7019;50.766;4.474;2022-08-21T08:53:10;25.70;99.90
13898;DHT22;7019;50.766;4.474;2022-08-21T08:55:41;25.70;99.90
13898;DHT22;7019;50.766;4.474;2022-08-21T08:58:20;26.10;99.90
13898;DHT22;7019;50.766;4.474;2022-08-21T09:00:51;26.40;99.90
13898;DHT22;7019;50.766;4.474;2022-08-21T09:03:18;26.70;99.90
13898;DHT22;7019;50.766;4.474;2022-08-21T09:05:48;26.80;99.90
13898;DHT22;7019;50.766;4.474;2022-08-21T09:08:41;27.00;99.90
13898;DHT22;7019;50.766;4.474;2022-08-21T09:11:15;27.20;99.90
13898;DHT22;7019;50.766;4.474;2022-08-21T09:13:51;27.10;99.90
13898;DHT22;7019;50.766;4.474;2022-08-21T09:16:33;27.10;99.90
13898;DHT22;7019;50.766;4.474;2022-08-21T09:19:16;26.90;99.90
13898;DHT22;7019;50.766;4.474;2022-08-21T09:21:53;26.80;99.90
13898;DHT22;7019;50.766;4.474;2022-08-21T09:24:31;26.70;99.90
13898;DHT22;7019;50.766;4.474;2022-08-21T09:27:08;26.70;99.90
13898;DHT22;7019;50.766;4.474;2022-08-21T09:29:37;27.20;99.90
13898;DHT22;7019;50.766;4.474;2022-08-21T09:32:15;27.80;99.90
13898;DHT22;7019;50.766;4.474;2022-08-21T09:34:56;27.80;99.90
13898;DHT22;7019;50.766;4.474;2022-08-21T09:37:24;27.80;98.90
13898;DHT22;7019;50.766;4.474;2022-08-21T09:39:52;28.00;99.90
13898;DHT22;7019;50.766;4.474;2022-08-21T09:42:23;27.80;99.00
13898;DHT22;7019;50.766;4.474;2022-08-21T09:45:12;27.90;99.10
13898;DHT22;7019;50.766;4.474;2022-08-21T09:47:42;27.70;99.40
13898;DHT22;7019;50.766;4.474;2022-08-21T09:50:14;27.50;99.60
13898;DHT22;7019;50.766;4.474;2022-08-21T09:52:46;27.50;99.40
13898;DHT22;7019;50.766;4.474;2022-08-21T09:55:30;27.70;99.80
13898;DHT22;7019;50.766;4.474;2022-08-21T09:58:15;27.70;99.30
13898;DHT22;7019;50.766;4.474;2022-08-21T10:00:44;28.00;98.50
13898;DHT22;7019;50.766;4.474;2022-08-21T10:03:15;28.00;99.10
13898;DHT22;7019;50.766;4.474;2022-08-21T10:05:52;28.30;98.60
13898;DHT22;7019;50.766;4.474;2022-08-21T10:08:21;29.00;98.40
13898;DHT22;7019;50.766;4.474;2022-08-21T10:10:51;29.20;97.30
13898;DHT22;7019;50.766;4.474;2022-08-21T10:13:26;28.60;98.70
13898;DHT22;7019;50.766;4.474;2022-08-21T10:16:04;28.70;98.30
13898;DHT22;7019;50.766;4.474;2022-08-21T10:18:37;28.90;97.20
13898;DHT22;7019;50.766;4.474;2022-08-21T10:21:13;29.30;97.80
13898;DHT22;7019;50.766;4.474;2022-08-21T10:23:57;29.70;97.10
13898;DHT22;7019;50.766;4.474;2022-08-21T10:26:34;29.40;96.70
13898;DHT22;7019;50.766;4.474;2022-08-21T10:29:11;29.30;97.10
13898;DHT22;7019;50.766;4.474;2022-08-21T10:31:51;29.00;96.70
13898;DHT22;7019;50.766;4.474;2022-08-21T10:34:33;28.70;97.70
13898;DHT22;7019;50.766;4.474;2022-08-21T10:37:15;28.50;98.00
13898;DHT22;7019;50.766;4.474;2022-08-21T10:39:50;28.10;97.70
13898;DHT22;7019;50.766;4.474;2022-08-21T10:42:28;28.00;98.10
13898;DHT22;7019;50.766;4.474;2022-08-21T10:45:11;27.60;98.00
13898;DHT22;7019;50.766;4.474;2022-08-21T10:47:44;27.90;97.80
13898;DHT22;7019;50.766;4.474;2022-08-21T10:50:23;27.40;97.80
13898;DHT22;7019;50.766;4.474;2022-08-21T10:53:12;26.90;98.70
13898;DHT22;7019;50.766;4.474;2022-08-21T10:55:47;26.30;99.30
13898;DHT22;7019;50.766;4.474;2022-08-21T10:58:22;26.10;99.50
13898;DHT22;7019;50.766;4.474;2022-08-21T11:00:56;26.70;99.10
13898;DHT22;7019;50.766;4.474;2022-08-21T11:03:29;27.10;99.00
13898;DHT22;7019;50.766;4.474;2022-08-21T11:06:02;27.60;98.50
13898;DHT22;7019;50.766;4.474;2022-08-21T11:08:35;27.80;98.10
13898;DHT22;7019;50.766;4.474;2022-08-21T11:11:08;27.80;98.10
13898;DHT22;7019;50.766;4.474;2022-08-21T11:13:40;28.00;97.90
13898;DHT22;7019;50.766;4.474;2022-08-21T11:16:15;28.20;97.90
13898;DHT22;7019;50.766;4.474;2022-08-21T11:18:46;28.40;96.70
13898;DHT22;7019;50.766;4.474;2022-08-21T11:21:28;28.10;97.90
13898;DHT22;7019;50.766;4.474;2022-08-21T11:24:05;27.20;97.90
13898;DHT22;7019;50.766;4.474;2022-08-21T11:26:41;26.70;99.10
13898;DHT22;7019;50.766;4.474;2022-08-21T11:29:13;26.40;99.40
13898;DHT22;7019;50.766;4.474;2022-08-21T11:32:00;26.30;98.80
13898;DHT22;7019;50.766;4.474;2022-08-21T11:34:45;26.50;99.40
13898;DHT22;7019;50.766;4.474;2022-08-21T11:37:23;26.80;99.30
13898;DHT22;7019;50.766;4.474;2022-08-21T11:39:59;26.70;99.70
13898;DHT22;7019;50.766;4.474;2022-08-21T11:42:35;26.30;99.80
13898;DHT22;7019;50.766;4.474;2022-08-21T11:45:14;25.80;99.90
13898;DHT22;7019;50.766;4.474;2022-08-21T11:47:54;25.40;99.90
13898;DHT22;7019;50.766;4.474;2022-08-21T11:50:27;25.20;99.90
13898;DHT22;7019;50.766;4.474;2022-08-21T11:53:00;25.20;99.90
13898;DHT22;7019;50.766;4.474;2022-08-21T11:55:31;25.20;99.90
13898;DHT22;7019;50.766;4.474;2022-08-21T11:58:03;25.30;99.90
13898;DHT22;7019;50.766;4.474;2022-08-21T12:00:34;25.60;99.90
13898;DHT22;7019;50.766;4.474;2022-08-21T12:03:09;26.10;99.90
13898;DHT22;7019;50.766;4.474;2022-08-21T12:05:40;26.80;99.90
13898;DHT22;7019;50.766;4.474;2022-08-21T12:08:14;27.10;98.40
13898;DHT22;7019;50.766;4.474;2022-08-21T12:10:47;27.40;98.20
13898;DHT22;7019;50.766;4.474;2022-08-21T12:13:27;27.80;97.60
13898;DHT22;7019;50.766;4.474;2022-08-21T12:16:05;27.80;97.30
13898;DHT22;7019;50.766;4.474;2022-08-21T12:18:32;28.50;97.30
13898;DHT22;7019;50.766;4.474;2022-08-21T12:21:15;28.90;96.70
13898;DHT22;7019;50.766;4.474;2022-08-21T12:23:47;29.30;95.70
13898;DHT22;7019;50.766;4.474;2022-08-21T12:26:24;29.40;95.80
13898;DHT22;7019;50.766;4.474;2022-08-21T12:29:09;29.50;94.90
13898;DHT22;7019;50.766;4.474;2022-08-21T12:31:48;29.10;95.90
13898;DHT22;7019;50.766;4.474;2022-08-21T12:34:17;28.20;96.40
13898;DHT22;7019;50.766;4.474;2022-08-21T12:36:46;27.70;97.50
13898;DHT22;7019;50.766;4.474;2022-08-21T12:39:22;27.80;97.00
13898;DHT22;7019;50.766;4.474;2022-08-21T12:41:55;27.70;96.90
13898;DHT22;7019;50.766;4.474;2022-08-21T12:44:28;27.60;97.60
13898;DHT22;7019;50.766;4.474;2022-08-21T12:46:59;27.30;97.70
13898;DHT22;7019;50.766;4.474;2022-08-21T12:49:32;26.70;97.00
13898;DHT22;7019;50.766;4.474;2022-08-21T12:52:05;26.30;97.50
13898;DHT22;7019;50.766;4.474;2022-08-21T12:54:44;26.10;98.60
13898;DHT22;7019;50.766;4.474;2022-08-21T12:57:19;26.00;99.20
13898;DHT22;7019;50.766;4.474;2022-08-21T12:59:52;25.80;98.60
13898;DHT22;7019;50.766;4.474;2022-08-21T13:02:23;25.70;99.70
13898;DHT22;7019;50.766;4.474;2022-08-21T13:04:52;25.80;99.90
13898;DHT22;7019;50.766;4.474;2022-08-21T13:07:26;26.10;98.40
13898;DHT22;7019;50.766;4.474;2022-08-21T13:09:59;26.40;98.80
13898;DHT22;7019;50.766;4.474;2022-08-21T13:12:27;26.70;98.60
13898;DHT22;7019;50.766;4.474;2022-08-21T13:14:57;26.80;97.80
13898;DHT22;7019;50.766;4.474;2022-08-21T13:17:26;26.80;97.80
13898;DHT22;7019;50.766;4.474;2022-08-21T13:19:55;26.60;98.30
13898;DHT22;7019;50.766;4.474;2022-08-21T13:22:24;26.50;98.10
13898;DHT22;7019;50.766;4.474;2022-08-21T13:24:51;26.30;97.80
13898;DHT22;7019;50.766;4.474;2022-08-21T13:27:24;26.00;97.90
13898;DHT22;7019;50.766;4.474;2022-08-21T13:30:06;25.70;98.50
13898;DHT22;7019;50.766;4.474;2022-08-21T13:32:35;25.50;98.90
13898;DHT22;7019;50.766;4.474;2022-08-21T13:35:13;25.40;99.70
13898;DHT22;7019;50.766;4.474;2022-08-21T13:37:42;25.40;99.60
13898;DHT22;7019;50.766;4.474;2022-08-21T13:40:13;25.20;99.90
13898;DHT22;7019;50.766;4.474;2022-08-21T13:42:45;25.20;99.40
13898;DHT22;7019;50.766;4.474;2022-08-21T13:45:22;25.10;99.30
13898;DHT22;7019;50.766;4.474;2022-08-21T13:47:50;25.10;99.60
13898;DHT22;7019;50.766;4.474;2022-08-21T13:50:21;25.10;99.90
13898;DHT22;7019;50.766;4.474;2022-08-21T13:52:57;25.10;99.90
13898;DHT22;7019;50.766;4.474;2022-08-21T13:55:25;25.10;99.20
13898;DHT22;7019;50.766;4.474;2022-08-21T13:58:04;25.10;99.90
13898;DHT22;7019;50.766;4.474;2022-08-21T14:00:33;25.20;99.50
13898;DHT22;7019;50.766;4.474;2022-08-21T14:03:05;25.10;99.60
13898;DHT22;7019;50.766;4.474;2022-08-21T14:05:35;25.10;99.90
13898;DHT22;7019;50.766;4.474;2022-08-21T14:08:07;25.10;99.50
13898;DHT22;7019;50.766;4.474;2022-08-21T14:10:40;25.10;99.40
13898;DHT22;7019;50.766;4.474;2022-08-21T14:13:32;25.10;99.70
13898;DHT22;7019;50.766;4.474;2022-08-21T14:16:02;25.10;99.40
13898;DHT22;7019;50.766;4.474;2022-08-21T14:18:29;25.10;99.90
13898;DHT22;7019;50.766;4.474;2022-08-21T14:21:06;25.00;99.90
13898;DHT22;7019;50.766;4.474;2022-08-21T14:23:34;25.00;99.90
13898;DHT22;7019;50.766;4.474;2022-08-21T14:26:03;25.00;99.90
13898;DHT22;7019;50.766;4.474;2022-08-21T14:28:34;24.90;99.90
13898;DHT22;7019;50.766;4.474;2022-08-21T14:31:13;24.90;99.90
13898;DHT22;7019;50.766;4.474;2022-08-21T14:33:41;24.90;99.90
13898;DHT22;7019;50.766;4.474;2022-08-21T14:36:09;25.00;99.90
13898;DHT22;7019;50.766;4.474;2022-08-21T14:38:38;25.00;99.90
13898;DHT22;7019;50.766;4.474;2022-08-21T14:41:11;25.00;99.90
13898;DHT22;7019;50.766;4.474;2022-08-21T14:43:43;25.10;99.90
13898;DHT22;7019;50.766;4.474;2022-08-21T14:46:12;25.10;99.70
13898;DHT22;7019;50.766;4.474;2022-08-21T14:48:39;25.20;99.50
13898;DHT22;7019;50.766;4.474;2022-08-21T14:51:06;25.30;99.00
13898;DHT22;7019;50.766;4.474;2022-08-21T14:53:33;25.20;99.10
13898;DHT22;7019;50.766;4.474;2022-08-21T14:56:00;25.30;99.80
13898;DHT22;7019;50.766;4.474;2022-08-21T14:58:37;25.40;99.90
13898;DHT22;7019;50.766;4.474;2022-08-21T15:01:06;25.40;99.50
13898;DHT22;7019;50.766;4.474;2022-08-21T15:03:35;25.40;99.80
13898;DHT22;7019;50.766;4.474;2022-08-21T15:06:03;25.30;99.90
13898;DHT22;7019;50.766;4.474;2022-08-21T15:08:30;25.30;99.50
13898;DHT22;7019;50.766;4.474;2022-08-21T15:10:58;25.30;99.90
13898;DHT22;7019;50.766;4.474;2022-08-21T15:13:25;25.30;99.90
13898;DHT22;7019;50.766;4.474;2022-08-21T15:15:52;25.30;99.90
13898;DHT22;7019;50.766;4.474;2022-08-21T15:18:22;25.10;99.90
13898;DHT22;7019;50.766;4.474;2022-08-21T15:20:49;25.00;99.80
13898;DHT22;7019;50.766;4.474;2022-08-21T15:23:17;25.00;99.90
13898;DHT22;7019;50.766;4.474;2022-08-21T15:25:46;24.90;99.90
13898;DHT22;7019;50.766;4.474;2022-08-21T15:28:14;24.80;99.90
13898;DHT22;7019;50.766;4.474;2022-08-21T15:30:42;24.80;99.90
13898;DHT22;7019;50.766;4.474;2022-08-21T15:33:10;24.80;99.90
13898;DHT22;7019;50.766;4.474;2022-08-21T15:35:39;24.70;99.90
13898;DHT22;7019;50.766;4.474;2022-08-21T15:38:06;24.60;99.90
13898;DHT22;7019;50.766;4.474;2022-08-21T15:40:35;24.60;99.90
13898;DHT22;7019;50.766;4.474;2022-08-21T15:43:04;24.50;99.90
13898;DHT22;7019;50.766;4.474;2022-08-21T15:45:33;24.50;99.90
13898;DHT22;7019;50.766;4.474;2022-08-21T15:48:00;24.50;99.90
13898;DHT22;7019;50.766;4.474;2022-08-21T15:50:29;24.50;99.90
13898;DHT22;7019;50.766;4.474;2022-08-21T15:52:58;24.30;99.90
13898;DHT22;7019;50.766;4.474;2022-08-21T15:55:26;24.30;99.90
13898;DHT22;7019;50.766;4.474;2022-08-21T15:57:53;24.20;99.90
13898;DHT22;7019;50.766;4.474;2022-08-21T16:00:22;24.20;99.90
13898;DHT22;7019;50.766;4.474;2022-08-21T16:02:51;24.10;99.90
13898;DHT22;7019;50.766;4.474;2022-08-21T16:05:20;24.00;99.90